KBLV/BLV METAR and TAF weather

Enter ICAO airport designator
Station Type Date Time Source
KBLV METAR 2022/01/25 05:56 UTC NOAA

KBLV 250556Z AUTO 35013G18KT 10SM OVC021 M04/M09 A3006 RMK AO2 SLP186 T10371089 10046 21037 401061039 52035 $


Station Type Date Time Source
KBLV Decoded METAR 2022/01/25 05:56 UTC NOAA

Belleville, Scott AFB/MidAmerica Airport, IL, United States (KBLV) 38-33N 089-51W
Jan 25, 2022 - 12:56 AM EST / 2022.01.25 0556 UTC
Wind: from the N (350 degrees) at 15 MPH (13 KT) gusting to 21 MPH (18 KT):0
Visibility: 10 mile(s):0
Sky conditions: overcast
Temperature: 25.3 F (-3.7 C)
Windchill: 12 F (-11 C):1
Dew Point: 16.0 F (-8.9 C)
Relative Humidity: 67%
Pressure (altimeter): 30.06 in. Hg (1017 hPa)
Pressure tendency: 0.10 inches (3.5 hPa) higher than three hours ago
ob: KBLV 250556Z AUTO 35013G18KT 10SM OVC021 M04/M09 A3006 RMK AO2 SLP186 T10371089 10046 21037 401061039 52035
cycle: 6

Station Type Date Time Source
KBLV TAF 2022/01/25 00:11 UTC NOAA

TAF KBLV 250000Z 2500/2606 33009KT 9999 BKN020 OVC030 QNH2985INS
BECMG 2504/2505 34015G20KT 9999 FEW020 SCT030 QNH3000INS TXM05/2500Z TNM10/2512Z

Example: see airport list